sensor_id;sensor_type;location;lat;lon;timestamp;pressure;altitude;pressure_sealevel;temperature;humidity
9139;BME280;4604;48.616;9.548;2023-04-27T00:01:15;96971.56;;;7.73;85.80
9139;BME280;4604;48.616;9.548;2023-04-27T00:03:42;96963.44;;;7.65;86.07
9139;BME280;4604;48.616;9.548;2023-04-27T00:06:10;96952.94;;;7.65;84.71
9139;BME280;4604;48.616;9.548;2023-04-27T00:08:38;96967.63;;;7.67;83.81
9139;BME280;4604;48.616;9.548;2023-04-27T00:11:05;96964.16;;;7.67;83.29
9139;BME280;4604;48.616;9.548;2023-04-27T00:13:31;96970.50;;;7.64;82.96
9139;BME280;4604;48.616;9.548;2023-04-27T00:15:59;96967.16;;;7.74;79.61
9139;BME280;4604;48.616;9.548;2023-04-27T00:18:27;96967.25;;;7.83;75.53
9139;BME280;4604;48.616;9.548;2023-04-27T00:20:54;96959.03;;;7.77;76.84
9139;BME280;4604;48.616;9.548;2023-04-27T00:23:21;96958.28;;;7.75;75.13
9139;BME280;4604;48.616;9.548;2023-04-27T00:25:49;96968.19;;;7.82;75.43
9139;BME280;4604;48.616;9.548;2023-04-27T00:28:15;96966.66;;;7.80;76.86
9139;BME280;4604;48.616;9.548;2023-04-27T00:30:42;96953.50;;;7.80;78.88
9139;BME280;4604;48.616;9.548;2023-04-27T00:33:09;96950.19;;;7.66;79.71
9139;BME280;4604;48.616;9.548;2023-04-27T00:35:36;96952.31;;;7.72;80.52
9139;BME280;4604;48.616;9.548;2023-04-27T00:38:02;96954.22;;;7.70;81.12
9139;BME280;4604;48.616;9.548;2023-04-27T00:40:29;96949.94;;;7.69;81.97
9139;BME280;4604;48.616;9.548;2023-04-27T00:42:57;96944.69;;;7.69;82.34
9139;BME280;4604;48.616;9.548;2023-04-27T00:45:23;96943.97;;;7.67;83.33
9139;BME280;4604;48.616;9.548;2023-04-27T00:47:50;96939.94;;;7.63;83.70
9139;BME280;4604;48.616;9.548;2023-04-27T00:50:19;96946.72;;;7.55;85.75
9139;BME280;4604;48.616;9.548;2023-04-27T00:52:50;96940.19;;;7.49;86.30
9139;BME280;4604;48.616;9.548;2023-04-27T00:55:16;96937.06;;;7.44;86.07
9139;BME280;4604;48.616;9.548;2023-04-27T00:57:43;96939.56;;;7.45;86.43
9139;BME280;4604;48.616;9.548;2023-04-27T01:00:13;96935.28;;;7.44;87.59
9139;BME280;4604;48.616;9.548;2023-04-27T01:02:40;96929.31;;;7.42;87.93
9139;BME280;4604;48.616;9.548;2023-04-27T01:05:08;96936.56;;;7.39;88.30
9139;BME280;4604;48.616;9.548;2023-04-27T01:07:36;96929.66;;;7.38;88.32
9139;BME280;4604;48.616;9.548;2023-04-27T01:10:03;96937.16;;;7.31;88.22
9139;BME280;4604;48.616;9.548;2023-04-27T01:12:30;96931.34;;;7.27;88.60
9139;BME280;4604;48.616;9.548;2023-04-27T01:14:57;96933.25;;;7.25;87.92
9139;BME280;4604;48.616;9.548;2023-04-27T01:17:25;96938.00;;;7.20;88.10
9139;BME280;4604;48.616;9.548;2023-04-27T01:19:51;96938.72;;;7.11;87.94
9139;BME280;4604;48.616;9.548;2023-04-27T01:22:19;96940.16;;;7.15;87.96
9139;BME280;4604;48.616;9.548;2023-04-27T01:24:50;96940.03;;;7.05;88.60
9139;BME280;4604;48.616;9.548;2023-04-27T01:27:18;96942.28;;;6.99;89.17
9139;BME280;4604;48.616;9.548;2023-04-27T01:29:44;96945.63;;;7.01;88.73
9139;BME280;4604;48.616;9.548;2023-04-27T01:32:11;96943.09;;;6.99;89.26
9139;BME280;4604;48.616;9.548;2023-04-27T01:34:38;96951.94;;;6.98;89.33
9139;BME280;4604;48.616;9.548;2023-04-27T01:37:04;96946.94;;;6.95;89.60
9139;BME280;4604;48.616;9.548;2023-04-27T01:39:31;96954.66;;;6.97;89.53
9139;BME280;4604;48.616;9.548;2023-04-27T01:42:00;96949.75;;;6.92;89.53
9139;BME280;4604;48.616;9.548;2023-04-27T01:44:27;96947.38;;;6.89;88.91
9139;BME280;4604;48.616;9.548;2023-04-27T01:46:54;96941.53;;;6.85;88.86
9139;BME280;4604;48.616;9.548;2023-04-27T01:49:20;96943.44;;;6.83;88.97
9139;BME280;4604;48.616;9.548;2023-04-27T01:51:47;96947.97;;;6.81;88.88
9139;BME280;4604;48.616;9.548;2023-04-27T01:54:14;96936.84;;;6.78;88.36
9139;BME280;4604;48.616;9.548;2023-04-27T01:56:40;96933.03;;;6.71;88.43
9139;BME280;4604;48.616;9.548;2023-04-27T01:59:08;96944.22;;;6.73;88.74
9139;BME280;4604;48.616;9.548;2023-04-27T02:01:35;96939.22;;;6.70;88.22
9139;BME280;4604;48.616;9.548;2023-04-27T02:04:01;96931.09;;;6.61;88.74
9139;BME280;4604;48.616;9.548;2023-04-27T02:06:28;96945.53;;;6.67;88.05
9139;BME280;4604;48.616;9.548;2023-04-27T02:08:55;96952.66;;;6.65;88.89
9139;BME280;4604;48.616;9.548;2023-04-27T02:11:22;96952.19;;;6.60;88.78
9139;BME280;4604;48.616;9.548;2023-04-27T02:13:48;96950.97;;;6.53;89.61
9139;BME280;4604;48.616;9.548;2023-04-27T02:16:16;96947.84;;;6.48;89.81
9139;BME280;4604;48.616;9.548;2023-04-27T02:18:46;96954.16;;;6.45;90.37
9139;BME280;4604;48.616;9.548;2023-04-27T02:21:13;96945.91;;;6.38;90.41
9139;BME280;4604;48.616;9.548;2023-04-27T02:23:40;96951.59;;;6.32;91.07
9139;BME280;4604;48.616;9.548;2023-04-27T02:26:06;96951.22;;;6.26;90.77
9139;BME280;4604;48.616;9.548;2023-04-27T02:28:33;96957.59;;;6.21;90.56
9139;BME280;4604;48.616;9.548;2023-04-27T02:31:02;96964.88;;;6.18;90.41
9139;BME280;4604;48.616;9.548;2023-04-27T02:33:31;96965.53;;;6.09;90.01
9139;BME280;4604;48.616;9.548;2023-04-27T02:35:57;96958.72;;;6.06;90.24
9139;BME280;4604;48.616;9.548;2023-04-27T02:38:24;96958.00;;;6.04;89.61
9139;BME280;4604;48.616;9.548;2023-04-27T02:40:52;96959.78;;;6.04;89.06
9139;BME280;4604;48.616;9.548;2023-04-27T02:43:19;96959.69;;;6.05;88.66
9139;BME280;4604;48.616;9.548;2023-04-27T02:45:45;96960.53;;;6.06;88.63
9139;BME280;4604;48.616;9.548;2023-04-27T02:48:12;96953.41;;;5.95;88.36
9139;BME280;4604;48.616;9.548;2023-04-27T02:50:40;96970.59;;;5.99;88.66
9139;BME280;4604;48.616;9.548;2023-04-27T02:53:07;96968.59;;;6.03;88.80
9139;BME280;4604;48.616;9.548;2023-04-27T02:55:34;96973.13;;;6.00;88.37
9139;BME280;4604;48.616;9.548;2023-04-27T02:58:01;96970.00;;;5.95;89.62
9139;BME280;4604;48.616;9.548;2023-04-27T03:00:28;96981.50;;;5.93;89.68
9139;BME280;4604;48.616;9.548;2023-04-27T03:02:55;96989.66;;;5.88;89.20
9139;BME280;4604;48.616;9.548;2023-04-27T03:05:21;96990.50;;;5.89;89.54
9139;BME280;4604;48.616;9.548;2023-04-27T03:07:49;96982.66;;;5.89;89.22
9139;BME280;4604;48.616;9.548;2023-04-27T03:10:16;96988.47;;;5.92;88.88
9139;BME280;4604;48.616;9.548;2023-04-27T03:12:43;96983.19;;;5.94;88.48
9139;BME280;4604;48.616;9.548;2023-04-27T03:15:10;96980.63;;;5.92;88.55
9139;BME280;4604;48.616;9.548;2023-04-27T03:17:36;96968.38;;;5.93;88.68
9139;BME280;4604;48.616;9.548;2023-04-27T03:20:04;96975.81;;;5.99;88.92
9139;BME280;4604;48.616;9.548;2023-04-27T03:22:33;96977.94;;;5.94;89.75
9139;BME280;4604;48.616;9.548;2023-04-27T03:25:01;96975.00;;;5.98;89.35
9139;BME280;4604;48.616;9.548;2023-04-27T03:27:28;96981.19;;;5.97;89.73
9139;BME280;4604;48.616;9.548;2023-04-27T03:29:55;96987.13;;;5.99;89.89
9139;BME280;4604;48.616;9.548;2023-04-27T03:32:22;96986.31;;;5.99;89.82
9139;BME280;4604;48.616;9.548;2023-04-27T03:34:48;96987.88;;;6.02;90.37
9139;BME280;4604;48.616;9.548;2023-04-27T03:37:15;96977.38;;;6.02;90.00
9139;BME280;4604;48.616;9.548;2023-04-27T03:39:41;96985.16;;;6.03;90.09
9139;BME280;4604;48.616;9.548;2023-04-27T03:42:10;96988.88;;;6.12;89.80
9139;BME280;4604;48.616;9.548;2023-04-27T03:44:37;96983.88;;;6.09;89.72
9139;BME280;4604;48.616;9.548;2023-04-27T03:47:04;96979.25;;;6.12;89.62
9139;BME280;4604;48.616;9.548;2023-04-27T03:49:33;96975.25;;;6.19;89.42
9139;BME280;4604;48.616;9.548;2023-04-27T03:52:00;96969.38;;;6.16;89.17
9139;BME280;4604;48.616;9.548;2023-04-27T03:54:27;96986.56;;;6.20;90.46
9139;BME280;4604;48.616;9.548;2023-04-27T03:56:54;96974.63;;;6.16;89.93
9139;BME280;4604;48.616;9.548;2023-04-27T03:59:22;96990.84;;;6.21;90.51
9139;BME280;4604;48.616;9.548;2023-04-27T04:01:49;96985.59;;;6.21;91.75
9139;BME280;4604;48.616;9.548;2023-04-27T04:04:16;96983.81;;;6.21;92.24
9139;BME280;4604;48.616;9.548;2023-04-27T04:06:42;96988.97;;;6.23;92.89
9139;BME280;4604;48.616;9.548;2023-04-27T04:09:09;96993.25;;;6.24;92.52
9139;BME280;4604;48.616;9.548;2023-04-27T04:11:36;96994.28;;;6.21;93.28
9139;BME280;4604;48.616;9.548;2023-04-27T04:14:03;96988.34;;;6.19;93.82
9139;BME280;4604;48.616;9.548;2023-04-27T04:16:32;96999.00;;;6.29;93.31
9139;BME280;4604;48.616;9.548;2023-04-27T04:18:58;96991.16;;;6.29;93.44
9139;BME280;4604;48.616;9.548;2023-04-27T04:21:25;96993.41;;;6.34;93.57
9139;BME280;4604;48.616;9.548;2023-04-27T04:23:52;96988.31;;;6.32;92.85
9139;BME280;4604;48.616;9.548;2023-04-27T04:26:19;96987.34;;;6.33;93.20
9139;BME280;4604;48.616;9.548;2023-04-27T04:28:47;97001.06;;;6.37;93.63
9139;BME280;4604;48.616;9.548;2023-04-27T04:31:14;96996.56;;;6.39;93.69
9139;BME280;4604;48.616;9.548;2023-04-27T04:33:44;96993.72;;;6.42;93.63
9139;BME280;4604;48.616;9.548;2023-04-27T04:36:10;96998.81;;;6.43;93.65
9139;BME280;4604;48.616;9.548;2023-04-27T04:38:37;96996.72;;;6.49;93.82
9139;BME280;4604;48.616;9.548;2023-04-27T04:41:04;97003.53;;;6.51;93.81
9139;BME280;4604;48.616;9.548;2023-04-27T04:43:31;96995.66;;;6.51;93.65
9139;BME280;4604;48.616;9.548;2023-04-27T04:45:58;97006.53;;;6.58;93.83
9139;BME280;4604;48.616;9.548;2023-04-27T04:48:25;96994.63;;;6.65;93.94
9139;BME280;4604;48.616;9.548;2023-04-27T04:50:55;96999.53;;;6.70;94.09
9139;BME280;4604;48.616;9.548;2023-04-27T04:53:21;97007.31;;;6.71;93.74
9139;BME280;4604;48.616;9.548;2023-04-27T04:55:48;97005.19;;;6.76;94.02
9139;BME280;4604;48.616;9.548;2023-04-27T04:58:15;97004.84;;;6.81;94.26
9139;BME280;4604;48.616;9.548;2023-04-27T05:00:41;97007.13;;;6.85;93.58
9139;BME280;4604;48.616;9.548;2023-04-27T05:03:08;96991.72;;;6.81;94.11
9139;BME280;4604;48.616;9.548;2023-04-27T05:05:35;97004.03;;;6.92;94.05
9139;BME280;4604;48.616;9.548;2023-04-27T05:08:03;97006.81;;;7.01;92.85
9139;BME280;4604;48.616;9.548;2023-04-27T05:10:30;97012.53;;;7.06;92.75
9139;BME280;4604;48.616;9.548;2023-04-27T05:12:59;97006.69;;;7.14;92.76
9139;BME280;4604;48.616;9.548;2023-04-27T05:15:25;97012.34;;;7.21;92.07
9139;BME280;4604;48.616;9.548;2023-04-27T05:17:52;97016.16;;;7.28;91.48
9139;BME280;4604;48.616;9.548;2023-04-27T05:20:19;97012.72;;;7.39;90.95
9139;BME280;4604;48.616;9.548;2023-04-27T05:22:46;97017.50;;;7.45;90.85
9139;BME280;4604;48.616;9.548;2023-04-27T05:25:14;97010.00;;;7.52;90.29
9139;BME280;4604;48.616;9.548;2023-04-27T05:27:40;97006.06;;;7.57;89.59
9139;BME280;4604;48.616;9.548;2023-04-27T05:30:08;97013.22;;;7.66;89.15
9139;BME280;4604;48.616;9.548;2023-04-27T05:32:35;97009.28;;;7.72;88.56
9139;BME280;4604;48.616;9.548;2023-04-27T05:35:02;97008.56;;;7.81;87.32
9139;BME280;4604;48.616;9.548;2023-04-27T05:37:29;97012.25;;;7.90;86.61
9139;BME280;4604;48.616;9.548;2023-04-27T05:39:56;97009.88;;;7.98;86.46
9139;BME280;4604;48.616;9.548;2023-04-27T05:42:24;97011.78;;;8.07;85.59
9139;BME280;4604;48.616;9.548;2023-04-27T05:44:50;97012.84;;;8.16;85.51
9139;BME280;4604;48.616;9.548;2023-04-27T05:47:17;97019.28;;;8.23;84.48
9139;BME280;4604;48.616;9.548;2023-04-27T05:49:49;97016.63;;;8.34;83.95
9139;BME280;4604;48.616;9.548;2023-04-27T05:52:16;97017.00;;;8.41;83.87
9139;BME280;4604;48.616;9.548;2023-04-27T05:54:45;97024.03;;;8.52;83.45
9139;BME280;4604;48.616;9.548;2023-04-27T05:57:12;97019.69;;;8.62;82.96
9139;BME280;4604;48.616;9.548;2023-04-27T05:59:40;97025.03;;;8.72;82.42
9139;BME280;4604;48.616;9.548;2023-04-27T06:02:07;97027.88;;;8.80;82.07
9139;BME280;4604;48.616;9.548;2023-04-27T06:04:33;97029.91;;;8.88;81.69
9139;BME280;4604;48.616;9.548;2023-04-27T06:07:00;97030.81;;;8.98;81.39
9139;BME280;4604;48.616;9.548;2023-04-27T06:09:29;97033.38;;;9.09;80.63
9139;BME280;4604;48.616;9.548;2023-04-27T06:11:55;97038.59;;;9.20;79.73
9139;BME280;4604;48.616;9.548;2023-04-27T06:14:24;97047.75;;;9.26;79.48
9139;BME280;4604;48.616;9.548;2023-04-27T06:16:52;97052.38;;;9.34;78.96
9139;BME280;4604;48.616;9.548;2023-04-27T06:19:18;97048.75;;;9.46;77.79
9139;BME280;4604;48.616;9.548;2023-04-27T06:21:45;97048.53;;;9.59;76.72
9139;BME280;4604;48.616;9.548;2023-04-27T06:24:12;97050.97;;;9.72;75.75
9139;BME280;4604;48.616;9.548;2023-04-27T06:26:41;97043.22;;;9.80;74.62
9139;BME280;4604;48.616;9.548;2023-04-27T06:29:07;97047.44;;;9.92;73.88
9139;BME280;4604;48.616;9.548;2023-04-27T06:31:36;97044.16;;;10.00;73.75
9139;BME280;4604;48.616;9.548;2023-04-27T06:34:04;97049.31;;;10.11;73.41
9139;BME280;4604;48.616;9.548;2023-04-27T06:36:31;97037.41;;;10.17;73.13
9139;BME280;4604;48.616;9.548;2023-04-27T06:38:57;97048.47;;;10.32;73.42
9139;BME280;4604;48.616;9.548;2023-04-27T06:41:25;97046.25;;;10.37;73.54
9139;BME280;4604;48.616;9.548;2023-04-27T06:43:52;97052.50;;;10.36;74.42
9139;BME280;4604;48.616;9.548;2023-04-27T06:46:19;97047.25;;;10.45;74.39
9139;BME280;4604;48.616;9.548;2023-04-27T06:48:45;97049.75;;;10.47;75.04
9139;BME280;4604;48.616;9.548;2023-04-27T06:51:13;97054.31;;;10.45;74.70
9139;BME280;4604;48.616;9.548;2023-04-27T06:53:40;97054.34;;;10.55;75.40
9139;BME280;4604;48.616;9.548;2023-04-27T06:56:10;97052.84;;;10.62;75.12
9139;BME280;4604;48.616;9.548;2023-04-27T06:58:37;97058.00;;;10.73;73.07
9139;BME280;4604;48.616;9.548;2023-04-27T07:01:03;97057.56;;;10.68;73.34
9139;BME280;4604;48.616;9.548;2023-04-27T07:03:33;97060.66;;;10.83;72.00
9139;BME280;4604;48.616;9.548;2023-04-27T07:06:00;97059.69;;;10.84;71.91
9139;BME280;4604;48.616;9.548;2023-04-27T07:08:29;97061.50;;;10.93;70.80
9139;BME280;4604;48.616;9.548;2023-04-27T07:10:55;97067.59;;;11.03;67.68
9139;BME280;4604;48.616;9.548;2023-04-27T07:13:22;97065.97;;;11.12;67.26
9139;BME280;4604;48.616;9.548;2023-04-27T07:15:53;97061.34;;;11.24;67.20
9139;BME280;4604;48.616;9.548;2023-04-27T07:18:20;97066.63;;;11.33;66.86
9139;BME280;4604;48.616;9.548;2023-04-27T07:20:46;97058.97;;;11.40;65.69
9139;BME280;4604;48.616;9.548;2023-04-27T07:23:13;97055.59;;;11.57;66.38
9139;BME280;4604;48.616;9.548;2023-04-27T07:25:42;97059.94;;;11.59;65.13
9139;BME280;4604;48.616;9.548;2023-04-27T07:28:09;97060.84;;;11.77;65.58
9139;BME280;4604;48.616;9.548;2023-04-27T07:30:36;97052.63;;;11.90;65.45
9139;BME280;4604;48.616;9.548;2023-04-27T07:33:04;97055.50;;;12.06;63.56
9139;BME280;4604;48.616;9.548;2023-04-27T07:35:31;97047.84;;;12.03;60.51
9139;BME280;4604;48.616;9.548;2023-04-27T07:37:58;97057.75;;;12.01;58.08
9139;BME280;4604;48.616;9.548;2023-04-27T07:40:25;97056.06;;;12.10;58.92
9139;BME280;4604;48.616;9.548;2023-04-27T07:42:54;97061.69;;;12.25;58.98
9139;BME280;4604;48.616;9.548;2023-04-27T07:45:21;97060.53;;;12.37;58.31
9139;BME280;4604;48.616;9.548;2023-04-27T07:47:55;97054.41;;;12.36;57.52
9139;BME280;4604;48.616;9.548;2023-04-27T07:50:22;97054.41;;;12.36;56.45
9139;BME280;4604;48.616;9.548;2023-04-27T07:52:50;97053.50;;;12.46;57.03
9139;BME280;4604;48.616;9.548;2023-04-27T07:55:17;97054.50;;;12.62;57.53
9139;BME280;4604;48.616;9.548;2023-04-27T07:57:43;97057.03;;;12.64;55.69
9139;BME280;4604;48.616;9.548;2023-04-27T08:00:12;97055.44;;;12.71;54.97
9139;BME280;4604;48.616;9.548;2023-04-27T08:02:40;97056.81;;;12.75;53.44
9139;BME280;4604;48.616;9.548;2023-04-27T08:05:07;97057.28;;;12.89;51.83
9139;BME280;4604;48.616;9.548;2023-04-27T08:07:34;97057.72;;;13.02;50.84
9139;BME280;4604;48.616;9.548;2023-04-27T08:10:01;97058.09;;;13.25;50.84
9139;BME280;4604;48.616;9.548;2023-04-27T08:12:27;97061.75;;;13.42;51.10
9139;BME280;4604;48.616;9.548;2023-04-27T08:14:54;97066.81;;;13.17;50.56
9139;BME280;4604;48.616;9.548;2023-04-27T08:17:22;97060.47;;;13.28;50.00
9139;BME280;4604;48.616;9.548;2023-04-27T08:19:49;97063.97;;;13.28;50.01
9139;BME280;4604;48.616;9.548;2023-04-27T08:22:16;97059.94;;;13.42;49.30
9139;BME280;4604;48.616;9.548;2023-04-27T08:24:42;97058.38;;;13.58;49.87
9139;BME280;4604;48.616;9.548;2023-04-27T08:27:09;97054.78;;;13.59;49.81
9139;BME280;4604;48.616;9.548;2023-04-27T08:29:36;97061.88;;;13.84;50.72
9139;BME280;4604;48.616;9.548;2023-04-27T08:32:03;97054.66;;;13.68;50.03
9139;BME280;4604;48.616;9.548;2023-04-27T08:34:32;97046.03;;;13.66;51.12
9139;BME280;4604;48.616;9.548;2023-04-27T08:36:58;97049.28;;;13.60;50.66
9139;BME280;4604;48.616;9.548;2023-04-27T08:39:26;97057.41;;;13.85;49.41
9139;BME280;4604;48.616;9.548;2023-04-27T08:41:53;97048.56;;;13.76;49.90
9139;BME280;4604;48.616;9.548;2023-04-27T08:44:20;97050.00;;;13.97;50.88
9139;BME280;4604;48.616;9.548;2023-04-27T08:46:46;97047.53;;;13.95;48.82
9139;BME280;4604;48.616;9.548;2023-04-27T08:49:13;97033.84;;;14.08;47.91
9139;BME280;4604;48.616;9.548;2023-04-27T08:51:41;97028.19;;;14.11;49.05
9139;BME280;4604;48.616;9.548;2023-04-27T08:54:08;97033.94;;;14.32;48.02
9139;BME280;4604;48.616;9.548;2023-04-27T08:56:35;97026.56;;;14.18;49.08
9139;BME280;4604;48.616;9.548;2023-04-27T08:59:01;97030.63;;;14.39;51.13
9139;BME280;4604;48.616;9.548;2023-04-27T09:01:29;97031.63;;;14.38;48.18
9139;BME280;4604;48.616;9.548;2023-04-27T09:03:59;97031.41;;;14.23;47.62
9139;BME280;4604;48.616;9.548;2023-04-27T09:06:30;97032.66;;;14.45;48.42
9139;BME280;4604;48.616;9.548;2023-04-27T09:08:58;97024.44;;;14.56;46.14
9139;BME280;4604;48.616;9.548;2023-04-27T09:11:29;97026.53;;;14.52;46.94
9139;BME280;4604;48.616;9.548;2023-04-27T09:13:58;97010.34;;;14.72;47.87
9139;BME280;4604;48.616;9.548;2023-04-27T09:16:26;97033.47;;;14.96;47.96
9139;BME280;4604;48.616;9.548;2023-04-27T09:18:54;97035.31;;;15.04;45.90
9139;BME280;4604;48.616;9.548;2023-04-27T09:21:21;97027.94;;;14.65;45.45
9139;BME280;4604;48.616;9.548;2023-04-27T09:23:48;97026.66;;;14.93;45.38
9139;BME280;4604;48.616;9.548;2023-04-27T09:26:20;97025.81;;;14.85;45.71
9139;BME280;4604;48.616;9.548;2023-04-27T09:28:48;97022.47;;;14.74;46.81
9139;BME280;4604;48.616;9.548;2023-04-27T09:31:15;97024.34;;;14.90;45.95
9139;BME280;4604;48.616;9.548;2023-04-27T09:33:43;97028.75;;;14.65;45.11
9139;BME280;4604;48.616;9.548;2023-04-27T09:36:10;97030.47;;;14.40;46.42
9139;BME280;4604;48.616;9.548;2023-04-27T09:38:37;97033.38;;;14.55;45.92
9139;BME280;4604;48.616;9.548;2023-04-27T09:41:04;97031.97;;;14.43;44.74
9139;BME280;4604;48.616;9.548;2023-04-27T09:43:32;97031.25;;;14.59;45.76
9139;BME280;4604;48.616;9.548;2023-04-27T09:45:59;97027.34;;;14.53;45.06
9139;BME280;4604;48.616;9.548;2023-04-27T09:48:27;97034.41;;;14.62;44.51
9139;BME280;4604;48.616;9.548;2023-04-27T09:50:53;97042.22;;;14.64;44.21
9139;BME280;4604;48.616;9.548;2023-04-27T09:53:24;97031.63;;;14.38;44.83
9139;BME280;4604;48.616;9.548;2023-04-27T09:56:00;97031.00;;;14.44;44.69
9139;BME280;4604;48.616;9.548;2023-04-27T09:58:47;97019.72;;;14.50;45.70
9139;BME280;4604;48.616;9.548;2023-04-27T10:01:25;97025.59;;;14.53;44.50
9139;BME280;4604;48.616;9.548;2023-04-27T10:04:07;97021.16;;;14.70;45.65
9139;BME280;4604;48.616;9.548;2023-04-27T10:06:55;97014.97;;;14.19;44.93
9139;BME280;4604;48.616;9.548;2023-04-27T10:09:22;97015.84;;;14.36;44.73
9139;BME280;4604;48.616;9.548;2023-04-27T10:11:50;97018.84;;;14.75;46.22
9139;BME280;4604;48.616;9.548;2023-04-27T10:14:20;97023.84;;;15.03;46.52
9139;BME280;4604;48.616;9.548;2023-04-27T10:16:50;97022.38;;;15.17;45.31
9139;BME280;4604;48.616;9.548;2023-04-27T10:19:18;97020.84;;;15.31;45.30
9139;BME280;4604;48.616;9.548;2023-04-27T10:21:52;97011.06;;;15.23;44.05
9139;BME280;4604;48.616;9.548;2023-04-27T10:24:30;97013.19;;;15.52;44.93
9139;BME280;4604;48.616;9.548;2023-04-27T10:27:00;97027.69;;;15.41;43.57
9139;BME280;4604;48.616;9.548;2023-04-27T10:29:36;97018.69;;;15.02;44.73
9139;BME280;4604;48.616;9.548;2023-04-27T10:32:08;97020.69;;;15.40;44.31
9139;BME280;4604;48.616;9.548;2023-04-27T10:34:36;97019.03;;;15.39;44.00
9139;BME280;4604;48.616;9.548;2023-04-27T10:37:04;97024.84;;;15.18;42.90
9139;BME280;4604;48.616;9.548;2023-04-27T10:39:34;97013.06;;;15.13;43.88
9139;BME280;4604;48.616;9.548;2023-04-27T10:42:02;97023.69;;;15.46;43.87
9139;BME280;4604;48.616;9.548;2023-04-27T10:44:30;97018.53;;;15.44;44.06
9139;BME280;4604;48.616;9.548;2023-04-27T10:46:59;97020.03;;;15.30;42.96
9139;BME280;4604;48.616;9.548;2023-04-27T10:49:26;97011.03;;;15.31;43.05
9139;BME280;4604;48.616;9.548;2023-04-27T10:51:53;97013.34;;;15.51;42.43
9139;BME280;4604;48.616;9.548;2023-04-27T10:54:25;97007.53;;;15.63;42.65
9139;BME280;4604;48.616;9.548;2023-04-27T10:56:52;97005.22;;;15.69;42.57
9139;BME280;4604;48.616;9.548;2023-04-27T10:59:19;96999.50;;;16.04;41.83
9139;BME280;4604;48.616;9.548;2023-04-27T11:01:47;97001.72;;;16.24;42.63
9139;BME280;4604;48.616;9.548;2023-04-27T11:04:16;97004.28;;;16.17;41.59
9139;BME280;4604;48.616;9.548;2023-04-27T11:06:44;96996.41;;;16.24;42.00
9139;BME280;4604;48.616;9.548;2023-04-27T11:09:11;96996.63;;;16.14;41.35
9139;BME280;4604;48.616;9.548;2023-04-27T11:11:42;97003.19;;;16.35;42.50
9139;BME280;4604;48.616;9.548;2023-04-27T11:14:14;96993.66;;;16.48;41.12
9139;BME280;4604;48.616;9.548;2023-04-27T11:16:45;96994.78;;;16.77;41.50
9139;BME280;4604;48.616;9.548;2023-04-27T11:19:12;97006.31;;;16.46;39.92
9139;BME280;4604;48.616;9.548;2023-04-27T11:21:41;96979.38;;;16.41;42.22
9139;BME280;4604;48.616;9.548;2023-04-27T11:24:08;96991.28;;;16.54;41.86
9139;BME280;4604;48.616;9.548;2023-04-27T11:26:35;96992.41;;;16.59;42.88
9139;BME280;4604;48.616;9.548;2023-04-27T11:29:03;96997.94;;;16.18;40.92
9139;BME280;4604;48.616;9.548;2023-04-27T11:31:41;96995.13;;;16.12;41.43
9139;BME280;4604;48.616;9.548;2023-04-27T11:34:14;96994.31;;;16.42;40.83
9139;BME280;4604;48.616;9.548;2023-04-27T11:36:43;96990.41;;;16.61;41.30
9139;BME280;4604;48.616;9.548;2023-04-27T11:39:15;96995.31;;;16.81;40.11
9139;BME280;4604;48.616;9.548;2023-04-27T11:41:43;96999.03;;;16.95;39.31
9139;BME280;4604;48.616;9.548;2023-04-27T11:44:13;96991.59;;;16.90;39.02
9139;BME280;4604;48.616;9.548;2023-04-27T11:46:45;96993.41;;;16.89;39.94
9139;BME280;4604;48.616;9.548;2023-04-27T11:49:13;96986.50;;;16.72;39.47
9139;BME280;4604;48.616;9.548;2023-04-27T11:51:39;96996.56;;;16.93;39.63
9139;BME280;4604;48.616;9.548;2023-04-27T11:54:10;96999.75;;;17.11;40.42
9139;BME280;4604;48.616;9.548;2023-04-27T11:56:39;97000.94;;;16.86;39.19
9139;BME280;4604;48.616;9.548;2023-04-27T11:59:17;96998.34;;;17.01;38.71
9139;BME280;4604;48.616;9.548;2023-04-27T12:01:44;97010.78;;;16.85;39.11
9139;BME280;4604;48.616;9.548;2023-04-27T12:04:11;96993.72;;;17.18;38.76
9139;BME280;4604;48.616;9.548;2023-04-27T12:06:37;96997.38;;;17.17;39.77
9139;BME280;4604;48.616;9.548;2023-04-27T12:09:05;97000.63;;;17.27;39.57
9139;BME280;4604;48.616;9.548;2023-04-27T12:11:33;97005.34;;;17.40;39.24
9139;BME280;4604;48.616;9.548;2023-04-27T12:14:01;96998.22;;;17.70;39.28
9139;BME280;4604;48.616;9.548;2023-04-27T12:16:27;96999.91;;;17.71;39.33
9139;BME280;4604;48.616;9.548;2023-04-27T12:18:54;96987.00;;;17.60;39.42
9139;BME280;4604;48.616;9.548;2023-04-27T12:21:21;96991.47;;;17.44;38.57
9139;BME280;4604;48.616;9.548;2023-04-27T12:23:48;96988.41;;;17.32;39.27
9139;BME280;4604;48.616;9.548;2023-04-27T12:26:15;96983.84;;;17.41;38.45
9139;BME280;4604;48.616;9.548;2023-04-27T12:28:43;96985.81;;;17.24;39.40
9139;BME280;4604;48.616;9.548;2023-04-27T12:31:12;96984.34;;;17.22;39.71
9139;BME280;4604;48.616;9.548;2023-04-27T12:33:39;96974.97;;;17.26;39.49
9139;BME280;4604;48.616;9.548;2023-04-27T12:36:06;96970.25;;;17.51;41.33
9139;BME280;4604;48.616;9.548;2023-04-27T12:38:32;96970.53;;;17.71;40.73
9139;BME280;4604;48.616;9.548;2023-04-27T12:41:00;96968.28;;;17.83;40.79
9139;BME280;4604;48.616;9.548;2023-04-27T12:43:27;96981.22;;;17.71;40.26
9139;BME280;4604;48.616;9.548;2023-04-27T12:45:55;96970.41;;;18.02;40.61
9139;BME280;4604;48.616;9.548;2023-04-27T12:48:22;96967.53;;;18.04;38.93
9139;BME280;4604;48.616;9.548;2023-04-27T12:50:48;96958.84;;;18.16;38.23
9139;BME280;4604;48.616;9.548;2023-04-27T12:53:15;96965.09;;;18.24;40.15
9139;BME280;4604;48.616;9.548;2023-04-27T12:55:42;96958.78;;;18.10;40.17
9139;BME280;4604;48.616;9.548;2023-04-27T12:58:09;96963.75;;;18.13;39.39
9139;BME280;4604;48.616;9.548;2023-04-27T13:00:36;96952.34;;;18.40;39.44
9139;BME280;4604;48.616;9.548;2023-04-27T13:03:04;96963.44;;;18.37;38.84
9139;BME280;4604;48.616;9.548;2023-04-27T13:05:32;96957.69;;;18.40;39.06
9139;BME280;4604;48.616;9.548;2023-04-27T13:07:58;96954.69;;;18.14;38.94
9139;BME280;4604;48.616;9.548;2023-04-27T13:10:25;96952.69;;;18.52;39.43
9139;BME280;4604;48.616;9.548;2023-04-27T13:12:53;96960.56;;;18.75;38.39
9139;BME280;4604;48.616;9.548;2023-04-27T13:15:20;96945.72;;;18.51;38.11
9139;BME280;4604;48.616;9.548;2023-04-27T13:17:47;96955.94;;;18.48;37.81
9139;BME280;4604;48.616;9.548;2023-04-27T13:20:15;96948.97;;;18.68;38.94
9139;BME280;4604;48.616;9.548;2023-04-27T13:22:41;96947.09;;;18.84;38.98
9139;BME280;4604;48.616;9.548;2023-04-27T13:25:08;96935.25;;;18.93;39.17
9139;BME280;4604;48.616;9.548;2023-04-27T13:27:36;96936.16;;;19.00;38.77
9139;BME280;4604;48.616;9.548;2023-04-27T13:30:04;96930.84;;;19.07;37.44